Time;durP1;ratioP1;P1;durP2;ratioP2;P2;SDS_P1;SDS_P2;PMS_P1;PMS_P2;Temp;Humidity;BMP_temperature;BMP_pressure;BME280_temperature;BME280_humidity;BME280_pressure;Samples;Min_cycle;Max_cycle;Signal;HPM_P1;HPM_P2
2021/07/27 00:01:40;;;;;;;53.38;50.30;;;;;;;;;;3586216;40;20356;-59
2021/07/27 00:04:05;;;;;;;50.40;47.55;;;;;;;;;;3585649;40;20129;-59
2021/07/27 00:06:31;;;;;;;56.70;53.58;;;;;;;;;;3585450;40;20033;-58
2021/07/27 00:08:58;;;;;;;42.50;40.05;;;;;;;;;;3586135;40;20111;-59
2021/07/27 00:11:23;;;;;;;40.28;38.03;;;;;;;;;;3583888;40;20424;-59
2021/07/27 00:13:49;;;;;;;33.55;31.45;;;;;;;;;;3585027;40;20044;-59
2021/07/27 00:16:14;;;;;;;38.00;35.80;;;;;;;;;;3583868;40;20117;-60
2021/07/27 00:18:40;;;;;;;50.13;47.28;;;;;;;;;;3582894;40;20361;-59
2021/07/27 00:21:05;;;;;;;46.17;43.53;;;;;;;;;;3586370;40;20046;-59
2021/07/27 00:23:34;;;;;;;50.60;47.83;;;;;;;;;;3586156;40;20033;-59
2021/07/27 00:26:01;;;;;;;52.00;49.08;;;;;;;;;;3586984;40;20036;-59
2021/07/27 00:28:27;;;;;;;51.85;48.95;;;;;;;;;;3587374;40;20072;-59
2021/07/27 00:30:52;;;;;;;40.97;38.40;;;;;;;;;;3587436;40;20032;-59
2021/07/27 00:33:18;;;;;;;34.35;32.33;;;;;;;;;;3586708;40;20040;-59
2021/07/27 00:35:44;;;;;;;42.00;39.58;;;;;;;;;;3587581;40;20032;-59
2021/07/27 00:38:12;;;;;;;44.63;42.17;;;;;;;;;;3587038;40;20028;-59
2021/07/27 00:40:41;;;;;;;39.67;37.28;;;;;;;;;;3586321;40;20037;-59
2021/07/27 00:43:17;;;;;;;41.63;39.03;;;;;;;;;;3586906;40;20130;-59
2021/07/27 00:45:43;;;;;;;40.97;38.45;;;;;;;;;;3586672;40;20033;-59
2021/07/27 00:48:09;;;;;;;35.03;32.88;;;;;;;;;;3587431;40;20137;-59
2021/07/27 00:50:35;;;;;;;39.88;37.50;;;;;;;;;;3587176;40;20064;-59
2021/07/27 00:53:03;;;;;;;34.58;32.38;;;;;;;;;;3586381;40;20052;-59
2021/07/27 00:55:31;;;;;;;31.23;29.38;;;;;;;;;;3586749;40;20038;-59
2021/07/27 00:57:56;;;;;;;31.20;29.30;;;;;;;;;;3585833;40;20246;-59
2021/07/27 01:00:24;;;;;;;23.73;22.15;;;;;;;;;;3587240;40;20044;-63
2021/07/27 01:02:50;;;;;;;29.45;27.73;;;;;;;;;;3586881;40;20041;-59
2021/07/27 01:05:15;;;;;;;27.88;26.17;;;;;;;;;;3586421;40;20055;-59
2021/07/27 01:07:42;;;;;;;27.23;25.38;;;;;;;;;;3586712;40;20478;-59
2021/07/27 01:10:13;;;;;;;30.40;28.50;;;;;;;;;;3586684;40;20052;-59
2021/07/27 01:12:38;;;;;;;;;;;;;;;;;;3587603;40;20049;-59
2021/07/27 01:15:05;;;;;;;24.13;22.42;;;;;;;;;;3587251;40;20160;-59
2021/07/27 01:17:31;;;;;;;26.17;24.45;;;;;;;;;;3586994;40;20029;-59
2021/07/27 01:20:48;;;;;;;25.58;23.73;;;;;;;;;;3586286;40;20412;-59
2021/07/27 01:42:05;;;;;;;21.77;20.27;;;;;;;;;;3586261;40;20161;-59
2021/07/27 01:44:32;;;;;;;19.95;18.65;;;;;;;;;;3586010;40;20039;-59
2021/07/27 01:46:58;;;;;;;19.42;17.55;;;;;;;;;;3586176;40;20044;-60
2021/07/27 01:49:24;;;;;;;15.10;14.00;;;;;;;;;;3587223;40;20125;-59
2021/07/27 01:51:49;;;;;;;14.10;13.00;;;;;;;;;;3585270;40;20037;-59
2021/07/27 01:54:16;;;;;;;16.13;13.73;;;;;;;;;;3585163;40;20052;-59
2021/07/27 01:56:47;;;;;;;13.85;12.85;;;;;;;;;;3586363;40;20041;-59
2021/07/27 01:59:12;;;;;;;14.10;12.90;;;;;;;;;;3586294;40;20032;-59
2021/07/27 02:01:39;;;;;;;15.68;13.63;;;;;;;;;;3584317;40;20161;-59
2021/07/27 02:04:04;;;;;;;15.02;13.48;;;;;;;;;;3584796;40;20035;-59
2021/07/27 02:06:30;;;;;;;14.52;13.43;;;;;;;;;;3586308;40;20532;-59
2021/07/27 02:09:04;;;;;;;15.52;14.32;;;;;;;;;;3586461;40;20047;-59
2021/07/27 02:11:37;;;;;;;13.90;12.60;;;;;;;;;;3585732;40;20055;-59
2021/07/27 02:14:03;;;;;;;13.88;12.77;;;;;;;;;;3586480;40;20076;-59
2021/07/27 02:16:29;;;;;;;14.57;13.25;;;;;;;;;;3586478;40;20114;-60
2021/07/27 02:19:00;;;;;;;13.82;12.68;;;;;;;;;;3585977;40;20648;-60
2021/07/27 02:21:25;;;;;;;16.02;14.52;;;;;;;;;;3586130;40;20137;-60
2021/07/27 02:23:51;;;;;;;22.70;21.15;;;;;;;;;;3586358;40;20036;-60
2021/07/27 02:26:16;;;;;;;15.30;13.95;;;;;;;;;;3586971;40;20036;-60
2021/07/27 02:28:41;;;;;;;17.15;15.77;;;;;;;;;;3586874;40;20101;-60
2021/07/27 02:31:12;;;;;;;22.95;20.98;;;;;;;;;;3585104;40;20042;-60
2021/07/27 02:33:38;;;;;;;17.85;16.40;;;;;;;;;;3586040;40;20192;-60
2021/07/27 02:36:04;;;;;;;15.93;14.70;;;;;;;;;;3586549;40;20037;-59
2021/07/27 02:38:29;;;;;;;15.27;14.20;;;;;;;;;;3585588;40;20043;-59
2021/07/27 02:40:55;;;;;;;16.70;15.43;;;;;;;;;;3586470;40;20356;-60
2021/07/27 02:43:20;;;;;;;16.60;14.90;;;;;;;;;;3584598;40;20049;-60
2021/07/27 02:45:45;;;;;;;14.18;12.95;;;;;;;;;;3584936;40;20040;-59
2021/07/27 02:48:11;;;;;;;15.23;13.95;;;;;;;;;;3585121;40;20044;-59
2021/07/27 02:50:36;;;;;;;16.35;15.13;;;;;;;;;;3584383;40;20045;-59
2021/07/27 02:53:02;;;;;;;19.13;17.75;;;;;;;;;;3584295;40;20474;-60
2021/07/27 02:55:27;;;;;;;18.48;17.10;;;;;;;;;;3586175;40;20368;-60
2021/07/27 02:57:53;;;;;;;17.10;15.40;;;;;;;;;;3586277;40;20033;-59
2021/07/27 03:00:19;;;;;;;21.40;19.75;;;;;;;;;;3585953;40;20122;-59
2021/07/27 03:02:45;;;;;;;19.65;18.08;;;;;;;;;;3586290;40;20155;-60
2021/07/27 03:05:12;;;;;;;19.45;17.83;;;;;;;;;;3584865;40;20354;-60
2021/07/27 03:10:22;;;;;;;15.15;13.63;;;;;;;;;;3584500;40;20713;-59
2021/07/27 03:12:54;;;;;;;16.15;14.07;;;;;;;;;;3584400;40;20062;-60
2021/07/27 03:15:25;;;;;;;16.17;14.68;;;;;;;;;;3586262;40;20035;-60
2021/07/27 03:17:55;;;;;;;15.35;13.77;;;;;;;;;;3585768;40;20267;-60
2021/07/27 03:20:21;;;;;;;19.50;14.73;;;;;;;;;;3586626;40;20052;-59
2021/07/27 03:22:46;;;;;;;16.27;14.85;;;;;;;;;;3585264;40;20078;-60
2021/07/27 03:25:17;;;;;;;16.17;15.02;;;;;;;;;;3585995;40;20049;-60
2021/07/27 03:27:44;;;;;;;16.05;14.70;;;;;;;;;;3586105;40;20507;-60
2021/07/27 03:30:10;;;;;;;16.85;15.52;;;;;;;;;;3586148;40;20726;-60
2021/07/27 03:32:36;;;;;;;15.43;14.13;;;;;;;;;;3585663;40;20142;-59
2021/07/27 03:35:03;;;;;;;16.63;15.23;;;;;;;;;;3586300;40;20065;-60
2021/07/27 03:37:28;;;;;;;16.52;15.07;;;;;;;;;;3585170;40;20025;-59
2021/07/27 03:39:54;;;;;;;13.95;12.57;;;;;;;;;;3581703;40;20044;-60
2021/07/27 03:42:19;;;;;;;15.85;14.63;;;;;;;;;;3586331;40;20154;-60
2021/07/27 03:44:52;;;;;;;14.48;13.00;;;;;;;;;;3586186;40;20068;-60
2021/07/27 03:47:17;;;;;;;19.55;17.98;;;;;;;;;;3586115;40;20048;-59
2021/07/27 03:49:43;;;;;;;15.63;14.40;;;;;;;;;;3585402;40;20051;-59
2021/07/27 03:52:08;;;;;;;14.77;13.57;;;;;;;;;;3584989;40;20050;-60
2021/07/27 03:54:34;;;;;;;14.43;13.10;;;;;;;;;;3585074;40;20044;-60
2021/07/27 03:57:06;;;;;;;14.55;13.45;;;;;;;;;;3586848;40;20055;-60
2021/07/27 03:59:32;;;;;;;15.82;13.88;;;;;;;;;;3586781;40;20421;-60
2021/07/27 04:01:58;;;;;;;17.55;15.95;;;;;;;;;;3587941;40;20036;-59
2021/07/27 04:04:24;;;;;;;13.80;12.70;;;;;;;;;;3587099;40;20041;-59
2021/07/27 04:06:49;;;;;;;20.27;18.33;;;;;;;;;;3587146;40;20093;-60
2021/07/27 04:09:15;;;;;;;14.18;12.88;;;;;;;;;;3587456;40;20063;-60
2021/07/27 04:11:41;;;;;;;14.90;13.60;;;;;;;;;;3586891;40;20080;-60
2021/07/27 04:14:07;;;;;;;13.77;12.63;;;;;;;;;;3586962;40;20488;-60
2021/07/27 04:16:33;;;;;;;14.80;13.45;;;;;;;;;;3587915;40;20025;-59
2021/07/27 04:18:58;;;;;;;16.33;14.95;;;;;;;;;;3586596;40;20121;-60
2021/07/27 04:21:25;;;;;;;15.05;13.85;;;;;;;;;;3587180;40;20029;-60
2021/07/27 04:23:50;;;;;;;16.00;14.05;;;;;;;;;;3587655;40;20371;-59
2021/07/27 04:26:16;;;;;;;14.27;12.85;;;;;;;;;;3587416;40;20117;-59
2021/07/27 04:28:42;;;;;;;15.18;13.77;;;;;;;;;;3586914;40;20025;-59
2021/07/27 04:31:07;;;;;;;14.32;13.13;;;;;;;;;;3584742;40;20044;-60
2021/07/27 04:33:33;;;;;;;16.38;14.98;;;;;;;;;;3586781;40;20052;-59
2021/07/27 04:35:58;;;;;;;16.70;15.23;;;;;;;;;;3586506;40;20064;-59
2021/07/27 04:38:23;;;;;;;18.00;16.60;;;;;;;;;;3587272;40;20647;-59
2021/07/27 04:40:53;;;;;;;16.52;14.98;;;;;;;;;;3587020;40;20040;-60
2021/07/27 04:43:19;;;;;;;15.80;14.48;;;;;;;;;;3587519;40;20040;-59
2021/07/27 04:45:44;;;;;;;16.42;15.23;;;;;;;;;;3586399;40;20028;-59
2021/07/27 04:48:09;;;;;;;18.83;17.40;;;;;;;;;;3586340;40;20059;-59
2021/07/27 04:50:44;;;;;;;18.70;17.42;;;;;;;;;;3586634;40;20141;-59
2021/07/27 04:53:10;;;;;;;24.40;15.82;;;;;;;;;;3587260;40;20141;-59
2021/07/27 04:55:36;;;;;;;19.40;17.75;;;;;;;;;;3587015;40;20581;-59
2021/07/27 04:58:05;;;;;;;23.77;22.05;;;;;;;;;;3586656;40;20423;-59
2021/07/27 05:00:30;;;;;;;22.52;20.95;;;;;;;;;;3587506;40;20044;-59
2021/07/27 05:02:58;;;;;;;20.17;18.73;;;;;;;;;;3587102;40;20364;-59
2021/07/27 05:05:24;;;;;;;16.10;14.80;;;;;;;;;;3583101;40;20087;-59
2021/07/27 05:07:49;;;;;;;13.48;12.38;;;;;;;;;;3585450;40;20121;-59
2021/07/27 05:10:19;;;;;;;14.45;10.57;;;;;;;;;;3586383;40;20033;-59
2021/07/27 05:12:44;;;;;;;14.13;12.93;;;;;;;;;;3585811;40;20369;-59
2021/07/27 05:15:10;;;;;;;17.30;15.98;;;;;;;;;;3585829;40;20100;-59
2021/07/27 05:17:37;;;;;;;16.20;14.80;;;;;;;;;;3586731;40;20036;-59
2021/07/27 05:20:04;;;;;;;18.00;16.10;;;;;;;;;;3587052;40;20045;-59
2021/07/27 05:22:29;;;;;;;23.98;16.58;;;;;;;;;;3586615;40;20033;-59
2021/07/27 05:24:55;;;;;;;18.52;16.90;;;;;;;;;;3586918;40;20047;-60
2021/07/27 05:27:23;;;;;;;20.35;18.85;;;;;;;;;;3585847;40;20561;-60
2021/07/27 05:29:49;;;;;;;20.38;18.77;;;;;;;;;;3584662;40;20283;-59
2021/07/27 05:32:15;;;;;;;18.20;16.70;;;;;;;;;;3581965;40;20025;-59
2021/07/27 05:34:40;;;;;;;17.10;15.38;;;;;;;;;;3580080;40;20043;-59
2021/07/27 05:37:06;;;;;;;15.60;14.50;;;;;;;;;;3582951;40;20037;-59
2021/07/27 05:39:32;;;;;;;17.02;15.63;;;;;;;;;;3583885;40;20056;-59
2021/07/27 05:41:57;;;;;;;12.45;11.35;;;;;;;;;;3584932;40;20044;-59
2021/07/27 05:44:26;;;;;;;14.93;13.82;;;;;;;;;;3584505;40;20308;-59
2021/07/27 05:46:59;;;;;;;16.35;15.00;;;;;;;;;;3585415;40;20042;-59
2021/07/27 05:49:26;;;;;;;18.88;17.45;;;;;;;;;;3584545;40;20075;-59
2021/07/27 05:51:51;;;;;;;17.63;16.33;;;;;;;;;;3584570;40;20052;-59
2021/07/27 05:54:19;;;;;;;14.88;13.82;;;;;;;;;;3584803;40;20584;-59
2021/07/27 05:56:47;;;;;;;19.67;18.10;;;;;;;;;;3583537;40;20041;-60
2021/07/27 05:59:13;;;;;;;14.48;13.27;;;;;;;;;;3584165;40;20118;-60
2021/07/27 06:01:38;;;;;;;14.77;12.65;;;;;;;;;;3584494;40;20048;-60
2021/07/27 06:04:03;;;;;;;14.30;12.65;;;;;;;;;;3585328;40;20575;-60
2021/07/27 06:06:30;;;;;;;13.25;12.27;;;;;;;;;;3584886;40;20068;-60
2021/07/27 06:08:58;;;;;;;15.10;13.77;;;;;;;;;;3584290;40;20080;-60
2021/07/27 06:11:23;;;;;;;16.45;15.15;;;;;;;;;;3585224;40;20076;-60
2021/07/27 06:13:48;;;;;;;17.70;16.35;;;;;;;;;;3585263;40;20028;-60
2021/07/27 06:16:14;;;;;;;10.63;9.60;;;;;;;;;;3584854;40;20372;-60
2021/07/27 06:18:39;;;;;;;11.52;10.32;;;;;;;;;;3583843;40;20068;-59
2021/07/27 06:21:04;;;;;;;12.70;11.02;;;;;;;;;;3583155;40;20044;-59
2021/07/27 06:23:30;;;;;;;11.10;10.10;;;;;;;;;;3584985;40;20453;-58
2021/07/27 06:25:55;;;;;;;9.02;8.23;;;;;;;;;;3584757;40;20033;-60
2021/07/27 06:28:20;;;;;;;11.98;10.88;;;;;;;;;;3584090;40;20052;-60
2021/07/27 06:30:46;;;;;;;8.90;8.13;;;;;;;;;;3585346;40;20262;-59
2021/07/27 06:33:11;;;;;;;10.60;9.40;;;;;;;;;;3584346;40;20032;-60
2021/07/27 06:35:37;;;;;;;8.77;7.70;;;;;;;;;;3582121;40;20057;-60
2021/07/27 06:38:02;;;;;;;9.00;8.18;;;;;;;;;;3584222;40;20032;-60
2021/07/27 06:40:28;;;;;;;15.90;9.23;;;;;;;;;;3584883;40;20029;-60
2021/07/27 06:42:53;;;;;;;11.48;9.32;;;;;;;;;;3584000;40;20033;-60
2021/07/27 06:45:18;;;;;;;13.40;12.32;;;;;;;;;;3584342;40;20383;-61
2021/07/27 06:47:44;;;;;;;9.45;8.45;;;;;;;;;;3582993;40;20055;-60
2021/07/27 06:50:10;;;;;;;11.55;10.23;;;;;;;;;;3584576;40;20052;-60
2021/07/27 06:52:36;;;;;;;10.98;9.98;;;;;;;;;;3583465;40;20033;-61
2021/07/27 06:55:02;;;;;;;14.20;10.75;;;;;;;;;;3583290;40;20043;-59
2021/07/27 06:57:27;;;;;;;12.35;11.25;;;;;;;;;;3582599;40;20073;-59
2021/07/27 06:59:52;;;;;;;10.88;9.88;;;;;;;;;;3583094;40;20028;-59
2021/07/27 07:02:18;;;;;;;12.95;11.68;;;;;;;;;;3582928;40;20057;-60
2021/07/27 07:04:43;;;;;;;12.57;11.40;;;;;;;;;;3583784;40;20036;-59
2021/07/27 07:07:09;;;;;;;14.13;12.90;;;;;;;;;;3583102;40;20040;-59
2021/07/27 07:09:35;;;;;;;13.27;11.98;;;;;;;;;;3583711;40;20129;-59
2021/07/27 07:12:00;;;;;;;13.30;12.20;;;;;;;;;;3582718;40;20037;-59
2021/07/27 07:14:25;;;;;;;12.15;10.98;;;;;;;;;;3584173;40;20035;-59
2021/07/27 07:16:51;;;;;;;13.07;11.95;;;;;;;;;;3582441;40;20269;-59
2021/07/27 07:19:18;;;;;;;12.20;11.10;;;;;;;;;;3583459;40;20045;-59
2021/07/27 07:21:44;;;;;;;11.45;10.43;;;;;;;;;;3582991;40;20146;-59
2021/07/27 07:24:09;;;;;;;16.20;14.98;;;;;;;;;;3584037;40;20356;-59
2021/07/27 07:26:35;;;;;;;14.25;13.13;;;;;;;;;;3584517;40;20032;-59
2021/07/27 07:29:00;;;;;;;15.25;13.65;;;;;;;;;;3584623;40;20183;-59
2021/07/27 07:31:25;;;;;;;11.20;10.15;;;;;;;;;;3585783;40;20052;-59
2021/07/27 07:33:52;;;;;;;9.63;8.82;;;;;;;;;;3585707;40;20036;-59
2021/07/27 07:36:19;;;;;;;14.50;13.40;;;;;;;;;;3583778;40;20044;-59
2021/07/27 07:38:44;;;;;;;13.80;9.77;;;;;;;;;;3585094;40;20096;-59
2021/07/27 07:41:11;;;;;;;16.67;15.48;;;;;;;;;;3585282;40;20052;-59
2021/07/27 07:43:37;;;;;;;15.40;14.10;;;;;;;;;;3583876;40;20033;-59
2021/07/27 07:46:03;;;;;;;13.25;12.02;;;;;;;;;;3584438;40;20212;-59
2021/07/27 07:48:28;;;;;;;9.95;8.95;;;;;;;;;;3581869;40;20637;-59
2021/07/27 07:50:53;;;;;;;14.13;13.02;;;;;;;;;;3583723;40;20088;-59
2021/07/27 07:53:19;;;;;;;12.02;10.93;;;;;;;;;;3582170;40;20033;-59
2021/07/27 07:55:44;;;;;;;12.43;11.38;;;;;;;;;;3585509;40;20041;-59
2021/07/27 07:58:10;;;;;;;13.93;12.48;;;;;;;;;;3584205;40;20048;-59
2021/07/27 08:00:35;;;;;;;9.80;7.60;;;;;;;;;;3582677;40;20138;-59
2021/07/27 08:03:05;;;;;;;14.60;13.45;;;;;;;;;;3582630;40;20036;-59
2021/07/27 08:05:30;;;;;;;15.02;13.77;;;;;;;;;;3582239;40;20045;-59
2021/07/27 08:07:56;;;;;;;14.80;13.75;;;;;;;;;;3582110;40;20047;-59
2021/07/27 08:10:21;;;;;;;8.23;7.13;;;;;;;;;;3582662;40;20052;-59
2021/07/27 08:12:47;;;;;;;8.15;6.45;;;;;;;;;;3583626;40;20037;-60
2021/07/27 08:15:15;;;;;;;9.75;8.75;;;;;;;;;;3585062;40;20137;-59
2021/07/27 08:17:41;;;;;;;8.40;7.13;;;;;;;;;;3584670;40;20044;-60
2021/07/27 08:20:07;;;;;;;7.45;6.40;;;;;;;;;;3583458;40;20075;-60
2021/07/27 08:22:36;;;;;;;8.93;6.75;;;;;;;;;;3584710;40;20036;-60
2021/07/27 08:25:01;;;;;;;16.88;7.55;;;;;;;;;;3585278;40;20383;-59
2021/07/27 08:27:26;;;;;;;7.18;6.22;;;;;;;;;;3584634;40;20053;-60
2021/07/27 08:29:52;;;;;;;8.32;6.28;;;;;;;;;;3584434;40;20379;-60
2021/07/27 08:32:17;;;;;;;8.88;5.65;;;;;;;;;;3583116;40;20048;-59
2021/07/27 08:34:44;;;;;;;7.50;5.90;;;;;;;;;;3583461;40;20051;-60
2021/07/27 08:37:09;;;;;;;6.85;6.18;;;;;;;;;;3583739;40;20045;-59
2021/07/27 08:39:35;;;;;;;8.45;5.65;;;;;;;;;;3584327;40;20133;-59
2021/07/27 08:42:03;;;;;;;8.27;5.65;;;;;;;;;;3584762;40;20078;-60
2021/07/27 08:44:31;;;;;;;6.90;5.72;;;;;;;;;;3585201;40;20501;-60
2021/07/27 08:46:59;;;;;;;7.72;5.20;;;;;;;;;;3585083;40;20039;-60
2021/07/27 08:49:25;;;;;;;7.78;5.85;;;;;;;;;;3582851;40;20043;-60
2021/07/27 08:51:50;;;;;;;7.63;6.25;;;;;;;;;;3584231;40;20648;-59
2021/07/27 08:54:16;;;;;;;11.68;6.63;;;;;;;;;;3585715;40;20040;-59
2021/07/27 08:56:48;;;;;;;8.18;6.47;;;;;;;;;;3585333;40;20410;-59
2021/07/27 08:59:15;;;;;;;7.93;5.47;;;;;;;;;;3584586;40;20037;-59
2021/07/27 09:01:41;;;;;;;6.43;5.18;;;;;;;;;;3584229;40;20045;-57
2021/07/27 09:04:06;;;;;;;8.07;5.65;;;;;;;;;;3585581;40;20142;-59
2021/07/27 09:06:31;;;;;;;8.60;7.07;;;;;;;;;;3583954;40;20398;-59
2021/07/27 09:09:05;;;;;;;7.28;5.43;;;;;;;;;;3584638;40;20048;-59
2021/07/27 09:11:31;;;;;;;6.55;5.85;;;;;;;;;;3584528;40;20133;-59
2021/07/27 09:13:57;;;;;;;6.10;5.20;;;;;;;;;;3585364;40;20056;-59
2021/07/27 09:16:22;;;;;;;7.95;6.97;;;;;;;;;;3584265;40;20047;-59
2021/07/27 09:19:01;;;;;;;6.60;5.88;;;;;;;;;;3585712;40;20130;-59
2021/07/27 09:21:27;;;;;;;7.40;5.95;;;;;;;;;;3584959;40;20430;-60
2021/07/27 09:23:54;;;;;;;7.47;5.65;;;;;;;;;;3583340;40;20355;-60
2021/07/27 09:26:21;;;;;;;10.57;6.78;;;;;;;;;;3585023;40;20052;-60
2021/07/27 09:28:48;;;;;;;7.30;5.70;;;;;;;;;;3584871;40;20398;-59
2021/07/27 09:31:14;;;;;;;9.45;5.18;;;;;;;;;;3584734;40;20103;-66
2021/07/27 09:33:39;;;;;;;7.63;5.88;;;;;;;;;;3582691;40;20036;-65
2021/07/27 09:36:05;;;;;;;8.18;5.30;;;;;;;;;;3583193;40;20039;-66
2021/07/27 09:38:33;;;;;;;6.97;5.55;;;;;;;;;;3582005;40;20044;-68
2021/07/27 09:41:00;;;;;;;10.20;5.75;;;;;;;;;;3583894;40;20125;-68
2021/07/27 09:43:27;;;;;;;6.68;5.30;;;;;;;;;;3584249;40;20073;-64
2021/07/27 09:45:56;;;;;;;8.40;7.55;;;;;;;;;;3581520;40;20065;-66
2021/07/27 09:48:23;;;;;;;6.75;5.63;;;;;;;;;;3583626;40;20141;-66
2021/07/27 09:50:53;;;;;;;8.60;5.70;;;;;;;;;;3584695;40;20047;-66
2021/07/27 09:53:19;;;;;;;6.15;4.93;;;;;;;;;;3585122;40;20048;-68
2021/07/27 09:55:45;;;;;;;6.90;5.38;;;;;;;;;;3584455;40;20043;-66
2021/07/27 09:58:11;;;;;;;9.63;6.20;;;;;;;;;;3583707;40;20542;-66
2021/07/27 10:00:50;;;;;;;6.05;4.80;;;;;;;;;;3585139;40;20064;-66
2021/07/27 10:03:23;;;;;;;6.78;5.22;;;;;;;;;;3584724;40;20138;-67
2021/07/27 10:06:03;;;;;;;6.97;5.65;;;;;;;;;;3583914;40;20388;-67
2021/07/27 10:08:31;;;;;;;;;;;;;;;;;;3585037;40;20064;-67
2021/07/27 10:11:09;;;;;;;8.10;5.60;;;;;;;;;;3584486;40;20306;-66
2021/07/27 10:13:45;;;;;;;6.88;5.55;;;;;;;;;;3585103;40;20057;-66
2021/07/27 10:16:20;;;;;;;6.88;5.40;;;;;;;;;;3583472;40;20044;-66
2021/07/27 10:18:45;;;;;;;6.78;5.35;;;;;;;;;;3583695;40;20063;-66
2021/07/27 10:21:23;;;;;;;5.55;4.85;;;;;;;;;;3584715;40;20309;-67
2021/07/27 10:23:57;;;;;;;6.70;5.53;;;;;;;;;;3584070;40;20097;-66
2021/07/27 10:26:33;;;;;;;9.15;5.45;;;;;;;;;;3584033;40;20077;-67
2021/07/27 10:28:59;;;;;;;7.28;5.72;;;;;;;;;;3584435;40;20033;-68
2021/07/27 10:31:44;;;;;;;7.32;5.82;;;;;;;;;;3583833;40;20304;-67
2021/07/27 10:34:12;;;;;;;6.60;5.55;;;;;;;;;;3583360;40;20044;-67
2021/07/27 10:36:40;;;;;;;8.57;5.68;;;;;;;;;;3583999;40;20050;-68
2021/07/27 10:39:08;;;;;;;9.35;6.35;;;;;;;;;;3581957;40;20122;-66
2021/07/27 10:41:36;;;;;;;8.10;6.38;;;;;;;;;;3582951;40;20044;-67
2021/07/27 10:44:06;;;;;;;7.10;6.03;;;;;;;;;;3584205;40;20046;-67
2021/07/27 10:46:36;;;;;;;7.65;6.07;;;;;;;;;;3582564;40;20071;-68
2021/07/27 10:49:01;;;;;;;7.57;5.78;;;;;;;;;;3584082;40;20173;-67
2021/07/27 10:51:31;;;;;;;6.78;5.50;;;;;;;;;;3584009;40;20335;-60
2021/07/27 10:53:58;;;;;;;9.60;6.15;;;;;;;;;;3583511;40;20052;-61
2021/07/27 10:56:28;;;;;;;7.32;6.05;;;;;;;;;;3583580;40;20053;-67
2021/07/27 10:58:54;;;;;;;8.00;6.43;;;;;;;;;;3584633;40;20036;-67
2021/07/27 11:01:21;;;;;;;7.65;6.50;;;;;;;;;;3583457;40;20129;-67
2021/07/27 11:03:48;;;;;;;7.47;6.65;;;;;;;;;;3582919;40;20068;-66
2021/07/27 11:06:13;;;;;;;8.90;6.55;;;;;;;;;;3583663;40;20036;-68
2021/07/27 11:08:39;;;;;;;9.70;7.15;;;;;;;;;;3583563;40;20133;-67
2021/07/27 11:11:10;;;;;;;8.15;6.40;;;;;;;;;;3582484;40;20169;-66
2021/07/27 11:13:37;;;;;;;8.13;7.32;;;;;;;;;;3582930;40;20037;-68
2021/07/27 11:16:03;;;;;;;7.47;6.07;;;;;;;;;;3584069;40;20032;-67
2021/07/27 11:18:30;;;;;;;7.60;6.80;;;;;;;;;;3583659;40;20035;-67
2021/07/27 11:20:59;;;;;;;9.10;7.60;;;;;;;;;;3581694;40;20052;-67
2021/07/27 11:23:30;;;;;;;10.10;6.88;;;;;;;;;;3582699;40;20045;-67
2021/07/27 11:25:57;;;;;;;9.18;6.60;;;;;;;;;;3584564;40;20031;-65
2021/07/27 11:28:35;;;;;;;8.75;6.80;;;;;;;;;;3583032;40;20032;-67
2021/07/27 11:31:01;;;;;;;6.60;5.90;;;;;;;;;;3583210;40;20060;-67
2021/07/27 11:33:27;;;;;;;8.05;7.00;;;;;;;;;;3583786;40;20044;-66
2021/07/27 11:35:54;;;;;;;7.47;6.47;;;;;;;;;;3583666;40;20128;-67
2021/07/27 11:38:23;;;;;;;15.88;7.35;;;;;;;;;;3583849;40;20464;-65
2021/07/27 11:40:49;;;;;;;10.43;6.90;;;;;;;;;;3580791;40;20033;-66
2021/07/27 11:43:15;;;;;;;7.72;6.93;;;;;;;;;;3581458;40;20380;-65
2021/07/27 11:45:42;;;;;;;8.68;6.50;;;;;;;;;;3582933;40;20055;-65
2021/07/27 11:48:09;;;;;;;7.88;5.65;;;;;;;;;;3581663;40;20075;-67
2021/07/27 11:50:38;;;;;;;12.02;7.70;;;;;;;;;;3583802;40;20063;-65
2021/07/27 11:53:05;;;;;;;7.13;6.43;;;;;;;;;;3581311;40;20061;-64
2021/07/27 11:55:35;;;;;;;7.70;6.90;;;;;;;;;;3581102;40;20049;-66
2021/07/27 11:58:02;;;;;;;8.60;6.03;;;;;;;;;;3582277;40;20371;-67
2021/07/27 12:00:30;;;;;;;9.60;6.00;;;;;;;;;;3582422;40;20040;-68
2021/07/27 12:02:56;;;;;;;9.02;5.80;;;;;;;;;;3583547;40;20050;-67
2021/07/27 12:05:21;;;;;;;6.18;5.30;;;;;;;;;;3583054;40;20028;-67
2021/07/27 12:07:47;;;;;;;7.05;5.28;;;;;;;;;;3583522;40;21403;-68
2021/07/27 12:10:14;;;;;;;7.75;5.60;;;;;;;;;;3581762;40;20028;-67
2021/07/27 12:12:40;;;;;;;7.63;5.72;;;;;;;;;;3581797;40;20040;-67
2021/07/27 12:15:07;;;;;;;6.60;5.45;;;;;;;;;;3582526;40;20041;-67
2021/07/27 12:17:32;;;;;;;9.90;4.88;;;;;;;;;;3582989;40;20036;-67
2021/07/27 12:19:58;;;;;;;6.40;5.70;;;;;;;;;;3584230;40;20044;-67
2021/07/27 12:22:23;;;;;;;6.80;5.70;;;;;;;;;;3585317;40;20040;-67
2021/07/27 12:24:49;;;;;;;8.93;5.75;;;;;;;;;;3585035;40;20056;-69
2021/07/27 12:27:14;;;;;;;6.47;5.65;;;;;;;;;;3585649;40;20129;-69
2021/07/27 12:29:39;;;;;;;6.80;5.60;;;;;;;;;;3585783;40;20396;-68
2021/07/27 12:32:05;;;;;;;7.30;5.60;;;;;;;;;;3583955;40;20376;-68
2021/07/27 12:34:31;;;;;;;9.35;5.40;;;;;;;;;;3583274;40;20050;-68
2021/07/27 12:36:56;;;;;;;6.15;5.25;;;;;;;;;;3584344;40;20130;-66
2021/07/27 12:39:23;;;;;;;6.35;5.22;;;;;;;;;;3584697;40;20041;-68
2021/07/27 12:41:49;;;;;;;6.38;5.45;;;;;;;;;;3581994;40;20041;-68
2021/07/27 12:44:16;;;;;;;6.40;5.25;;;;;;;;;;3583453;40;20053;-68
2021/07/27 12:46:42;;;;;;;11.15;5.50;;;;;;;;;;3584839;40;20118;-68
2021/07/27 12:49:09;;;;;;;6.45;5.10;;;;;;;;;;3585113;40;20390;-67
2021/07/27 12:51:35;;;;;;;8.98;5.35;;;;;;;;;;3585267;40;20060;-67
2021/07/27 12:54:00;;;;;;;7.45;5.78;;;;;;;;;;3584977;40;20135;-67
2021/07/27 12:56:26;;;;;;;7.40;5.63;;;;;;;;;;3585164;40;20044;-67
2021/07/27 12:58:52;;;;;;;7.95;5.45;;;;;;;;;;3584429;40;20044;-67
2021/07/27 13:01:17;;;;;;;5.85;4.72;;;;;;;;;;3583123;40;20048;-67
2021/07/27 13:03:42;;;;;;;10.05;5.35;;;;;;;;;;3584691;40;20045;-66
2021/07/27 13:06:08;;;;;;;6.88;5.43;;;;;;;;;;3583420;40;20852;-66
2021/07/27 13:08:34;;;;;;;5.70;5.10;;;;;;;;;;3583573;40;20129;-67
2021/07/27 13:11:00;;;;;;;6.53;5.20;;;;;;;;;;3583404;40;20041;-66
2021/07/27 13:13:25;;;;;;;7.82;5.38;;;;;;;;;;3585111;40;20059;-65
2021/07/27 13:15:51;;;;;;;5.72;5.00;;;;;;;;;;3582845;40;20048;-66
2021/07/27 13:18:17;;;;;;;6.55;5.10;;;;;;;;;;3584241;40;20035;-67
2021/07/27 13:20:45;;;;;;;6.20;5.13;;;;;;;;;;3582732;40;20068;-66
2021/07/27 13:23:11;;;;;;;8.27;4.95;;;;;;;;;;3584605;40;20032;-68
2021/07/27 13:25:36;;;;;;;6.82;5.30;;;;;;;;;;3584413;40;20033;-67
2021/07/27 13:28:02;;;;;;;5.93;5.22;;;;;;;;;;3585073;40;20036;-67
2021/07/27 13:30:27;;;;;;;6.85;5.47;;;;;;;;;;3584844;40;20368;-67
2021/07/27 13:32:54;;;;;;;7.35;5.18;;;;;;;;;;3583610;40;20288;-67
2021/07/27 13:35:19;;;;;;;7.05;4.78;;;;;;;;;;3583394;40;20649;-67
2021/07/27 13:37:45;;;;;;;8.90;5.20;;;;;;;;;;3585209;40;20032;-67
2021/07/27 13:40:11;;;;;;;6.55;5.35;;;;;;;;;;3585099;40;20039;-67
2021/07/27 13:42:36;;;;;;;7.00;6.13;;;;;;;;;;3580859;40;20044;-68
2021/07/27 13:45:03;;;;;;;6.43;5.53;;;;;;;;;;3584150;40;20045;-67
2021/07/27 13:47:29;;;;;;;8.57;7.32;;;;;;;;;;3583620;40;20388;-67
2021/07/27 13:49:55;;;;;;;6.50;5.10;;;;;;;;;;3582513;40;20048;-67
2021/07/27 13:52:20;;;;;;;5.70;4.65;;;;;;;;;;3583742;40;20047;-67
2021/07/27 13:54:45;;;;;;;6.82;5.88;;;;;;;;;;3584604;40;20153;-67
2021/07/27 13:57:11;;;;;;;6.45;4.82;;;;;;;;;;3584089;40;20052;-66
2021/07/27 13:59:37;;;;;;;6.75;5.22;;;;;;;;;;3583726;40;20048;-67
2021/07/27 14:02:03;;;;;;;5.65;4.88;;;;;;;;;;3583668;40;20350;-67
2021/07/27 14:04:31;;;;;;;5.63;4.93;;;;;;;;;;3584404;40;20361;-67
2021/07/27 14:06:57;;;;;;;10.73;4.75;;;;;;;;;;3585460;40;20052;-67
2021/07/27 14:09:22;;;;;;;7.90;5.65;;;;;;;;;;3584693;40;20032;-67
2021/07/27 14:11:48;;;;;;;6.47;4.97;;;;;;;;;;3584981;40;20041;-67
2021/07/27 14:14:13;;;;;;;5.97;5.03;;;;;;;;;;3584973;40;20037;-67
2021/07/27 14:16:39;;;;;;;8.55;5.90;;;;;;;;;;3585032;40;20486;-67
2021/07/27 14:19:05;;;;;;;5.93;4.95;;;;;;;;;;3584299;40;20068;-67
2021/07/27 14:21:30;;;;;;;6.68;4.90;;;;;;;;;;3584500;40;20100;-67
2021/07/27 14:23:56;;;;;;;5.72;5.10;;;;;;;;;;3584038;40;20052;-68
2021/07/27 14:26:21;;;;;;;7.07;4.97;;;;;;;;;;3584525;40;20483;-67
2021/07/27 14:28:46;;;;;;;7.35;5.70;;;;;;;;;;3584031;40;20068;-67
2021/07/27 14:31:12;;;;;;;7.97;5.50;;;;;;;;;;3585162;40;20044;-67
2021/07/27 14:33:38;;;;;;;8.60;5.78;;;;;;;;;;3583441;40;20099;-67
2021/07/27 14:36:04;;;;;;;7.50;6.00;;;;;;;;;;3584766;40;20137;-67
2021/07/27 14:38:29;;;;;;;9.85;5.93;;;;;;;;;;3584982;40;20041;-67
2021/07/27 14:40:54;;;;;;;7.50;4.60;;;;;;;;;;3584362;40;20052;-65
2021/07/27 14:43:20;;;;;;;6.22;5.18;;;;;;;;;;3584726;40;20041;-66
2021/07/27 14:45:45;;;;;;;5.75;4.78;;;;;;;;;;3585116;40;20052;-67
2021/07/27 14:48:13;;;;;;;6.15;5.20;;;;;;;;;;3583884;40;20384;-67
2021/07/27 14:50:39;;;;;;;6.45;4.95;;;;;;;;;;3584984;40;20350;-66